»·PEaware :: N912D KSNA-KBUR

N912D :: KSNA-KBUR

FLIGHT INFORMATION

Flight Status: Arrived
Operator: Privately registered:
United States
More flights under this callsign
Pilot: Andrew D. (32435)
Aircraft: SOCATA TBM-900
(TBM9)
More flights by this aircraft type
Origin: KSNA John Wayne-Orange Co
United States
Destination: KBUR Bob Hope-Burbank
United States
More flights between these airports :: More routes between these airports
Route: +SLI V23 LAX LAX316R SILEX
File this flight plan on PilotEdge
Remarks:
Altitude:
(Current/Filed)
6,000ft
Speed:
(Current/Filed)
240kts
Departed: 17-Nov-20 01:00 PM
Arrived: 17-Nov-20 01:22 PM
Distance/Time
Traveled:
40nm/0:22
Distance/Time
To Go:
Arrived

Flight Plot

Page will automatically refresh every two minutes.


Map Options




Map Legend


Flown Route
Filed Route
Departure Airport
Arrival Airport
Navaid (VOR, NDB)
Fix

Horizontal Profiles

Position Reports

Time Latitude Longitude Heading Altitude Ground
Speed
17-Nov-20 12:29 33.675236 -117.871620 38 59ft 0kts
17-Nov-20 12:30 33.675236 -117.871620 38 59ft 0kts
17-Nov-20 12:31 33.675236 -117.871620 38 59ft 0kts
17-Nov-20 12:32 33.675236 -117.871620 38 59ft 0kts
17-Nov-20 12:41 33.675236 -117.871620 38 59ft 0kts
17-Nov-20 12:42 33.675236 -117.871620 38 59ft 0kts
17-Nov-20 12:43 33.675236 -117.871620 38 59ft 0kts
17-Nov-20 12:44 33.675236 -117.871620 38 59ft 0kts
17-Nov-20 12:45 33.675236 -117.871620 38 59ft 0kts
17-Nov-20 12:46 33.675236 -117.871620 38 59ft 0kts
17-Nov-20 12:47 33.675236 -117.871620 38 59ft 0kts
17-Nov-20 12:48 33.675236 -117.871620 38 59ft 0kts
17-Nov-20 12:49 33.675236 -117.871620 38 59ft 0kts
17-Nov-20 12:50 33.675236 -117.871620 38 59ft 0kts
17-Nov-20 12:51 33.675236 -117.871620 38 59ft 0kts
17-Nov-20 12:52 33.675236 -117.871620 38 59ft 0kts
17-Nov-20 12:53 33.675236 -117.871620 38 59ft 0kts
17-Nov-20 12:54 33.675351 -117.870566 32 59ft 8kts
17-Nov-20 12:55 33.677556 -117.869166 26 59ft 9kts
17-Nov-20 12:56 33.680984 -117.867161 27 59ft 11kts
17-Nov-20 12:57 33.681245 -117.866532 113 59ft 0kts
17-Nov-20 12:58 33.681245 -117.866532 113 59ft 0kts
17-Nov-20 12:59 33.671648 -117.871555 208 387ft 106kts
17-Nov-20 13:00 33.645291 -117.907206 231 1751ft 178kts
17-Nov-20 13:01 33.616663 -117.954093 231 3569ft 171kts
17-Nov-20 13:02 33.599075 -118.003232 289 5719ft 177kts
17-Nov-20 13:03 33.638045 -118.055928 310 6013ft 240kts
17-Nov-20 13:04 33.685642 -118.116349 311 6002ft 253kts
17-Nov-20 13:05 33.734489 -118.178420 311 5992ft 258kts
17-Nov-20 13:06 33.783852 -118.241255 311 5992ft 258kts
17-Nov-20 13:07 33.833101 -118.304070 311 5991ft 258kts
17-Nov-20 13:08 33.882485 -118.367170 311 5820ft 259kts
17-Nov-20 13:09 33.930879 -118.429092 312 5355ft 257kts
17-Nov-20 13:10 33.988351 -118.479351 322 4990ft 248kts
17-Nov-20 13:11 34.042808 -118.528625 322 4991ft 243kts
17-Nov-20 13:12 34.096435 -118.577075 322 4988ft 233kts
17-Nov-20 13:13 34.147519 -118.623396 322 4283ft 224kts
17-Nov-20 13:14 34.197244 -118.646565 44 3969ft 190kts
17-Nov-20 13:15 34.201041 -118.587536 91 3581ft 173kts
17-Nov-20 13:16 34.200188 -118.530843 92 3436ft 154kts
17-Nov-20 13:17 34.199443 -118.479387 92 2537ft 153kts
17-Nov-20 13:18 34.198835 -118.436401 94 1839ft 103kts
17-Nov-20 13:19 34.198337 -118.403482 95 1342ft 96kts
17-Nov-20 13:20 34.198003 -118.373977 94 828ft 80kts
17-Nov-20 13:21 34.198564 -118.360253 0 716ft 9kts
17-Nov-20 13:22 34.198907 -118.360692 265 719ft 6kts
17-Nov-20 13:23 34.199480 -118.364066 268 724ft 10kts
17-Nov-20 13:24 34.199971 -118.363901 4 725ft 0kts
17-Nov-20 13:25 34.199971 -118.363901 4 725ft 0kts
17-Nov-20 13:26 34.199971 -118.363901 4 725ft 0kts

Navigation Log

Ident Type
Flight plan parsing failed, navigation log unavailable